createdAt,value
2023-03-26T00:00:59.935Z,8.80
2023-03-26T00:03:27.766Z,8.70
2023-03-26T00:06:03.972Z,8.80
2023-03-26T00:08:30.895Z,8.80
2023-03-26T00:10:58.059Z,8.80
2023-03-26T00:13:25.245Z,8.80
2023-03-26T00:15:52.904Z,8.80
2023-03-26T00:18:21.457Z,8.80
2023-03-26T00:20:48.079Z,8.80
2023-03-26T00:23:14.629Z,8.90
2023-03-26T00:25:42.163Z,8.80
2023-03-26T00:28:09.276Z,8.90
2023-03-26T00:30:36.116Z,8.80
2023-03-26T00:33:02.811Z,8.80
2023-03-26T00:35:29.781Z,8.90
2023-03-26T00:37:58.308Z,8.90
2023-03-26T00:40:25.233Z,8.80
2023-03-26T00:42:51.873Z,8.80
2023-03-26T00:45:21.291Z,8.80
2023-03-26T00:47:47.978Z,8.80
2023-03-26T00:50:16.251Z,8.80
2023-03-26T00:52:44.095Z,8.90
2023-03-26T00:55:10.875Z,8.80
2023-03-26T00:57:37.515Z,8.80
2023-03-26T01:00:16.451Z,8.90
2023-03-26T01:02:45.182Z,8.90
2023-03-26T01:05:30.521Z,8.80
2023-03-26T01:07:57.258Z,8.80
2023-03-26T01:10:23.819Z,8.90
2023-03-26T01:12:50.371Z,8.90
2023-03-26T01:15:17.026Z,8.90
2023-03-26T01:17:43.676Z,8.90
2023-03-26T01:20:14.832Z,8.90
2023-03-26T01:22:44.263Z,8.90
2023-03-26T01:25:11.092Z,8.80
2023-03-26T01:27:38.866Z,8.80
2023-03-26T01:30:10.426Z,8.90
2023-03-26T01:32:41.334Z,8.90
2023-03-26T01:35:26.873Z,8.90
2023-03-26T01:38:02.515Z,8.90
2023-03-26T01:40:38.510Z,8.80
2023-03-26T01:43:05.644Z,8.90
2023-03-26T01:45:34.657Z,8.80
2023-03-26T01:48:01.806Z,8.90
2023-03-26T01:50:28.397Z,8.90
2023-03-26T01:52:55.226Z,8.90
2023-03-26T01:55:23.377Z,8.80
2023-03-26T01:57:57.293Z,8.80
2023-03-26T02:00:23.859Z,8.90
2023-03-26T02:02:56.355Z,8.90
2023-03-26T02:05:27.750Z,8.80
2023-03-26T02:07:58.573Z,8.80
2023-03-26T02:10:29.684Z,8.80
2023-03-26T02:12:57.615Z,8.80
2023-03-26T02:15:24.339Z,8.80
2023-03-26T02:17:52.436Z,8.80
2023-03-26T02:20:19.793Z,8.80
2023-03-26T02:22:47.235Z,8.80
2023-03-26T02:25:18.337Z,8.80
2023-03-26T02:27:45.450Z,8.80
2023-03-26T02:30:17.058Z,8.80
2023-03-26T02:32:46.634Z,8.80
2023-03-26T02:35:13.389Z,8.80
2023-03-26T02:37:40.418Z,8.80
2023-03-26T02:40:11.231Z,8.70
2023-03-26T02:42:38.288Z,8.70
2023-03-26T02:45:06.967Z,8.70
2023-03-26T02:47:33.927Z,9.00
2023-03-26T02:50:01.488Z,8.90
2023-03-26T02:52:28.059Z,8.70
2023-03-26T02:54:54.798Z,8.70
2023-03-26T02:57:21.506Z,8.50
2023-03-26T02:59:50.306Z,8.70
2023-03-26T03:02:18.445Z,8.60
2023-03-26T03:04:45.232Z,8.60
2023-03-26T03:07:14.466Z,8.60
2023-03-26T03:09:41.151Z,8.10
2023-03-26T03:12:07.738Z,8.50
2023-03-26T03:14:34.308Z,8.50
2023-03-26T03:17:01.021Z,8.40
2023-03-26T03:19:27.663Z,8.40
2023-03-26T03:21:54.288Z,8.40
2023-03-26T03:24:20.835Z,8.40
2023-03-26T03:26:47.770Z,8.40
2023-03-26T03:29:14.430Z,8.30
2023-03-26T03:31:41.675Z,8.30
2023-03-26T03:34:08.211Z,8.30
2023-03-26T03:36:38.504Z,8.20
2023-03-26T03:39:05.239Z,8.20
2023-03-26T03:41:31.829Z,8.20
2023-03-26T03:43:59.820Z,8.10
2023-03-26T03:46:26.671Z,8.10
2023-03-26T03:48:53.234Z,8.10
2023-03-26T03:51:19.901Z,8.10
2023-03-26T03:53:47.450Z,8.10
2023-03-26T03:56:14.780Z,8.00
2023-03-26T03:58:42.223Z,8.00
2023-03-26T04:01:08.882Z,8.00
2023-03-26T04:03:38.870Z,7.90
2023-03-26T04:06:11.073Z,8.00
2023-03-26T04:08:38.000Z,7.90
2023-03-26T04:11:04.843Z,7.90
2023-03-26T04:13:31.393Z,7.90
2023-03-26T04:15:58.166Z,7.90
2023-03-26T04:18:26.271Z,7.90
2023-03-26T04:20:54.594Z,7.90
2023-03-26T04:23:22.467Z,7.80
2023-03-26T04:25:51.076Z,7.80
2023-03-26T04:28:26.386Z,7.80
2023-03-26T04:30:54.484Z,7.80
2023-03-26T04:33:21.321Z,7.80
2023-03-26T04:35:50.939Z,7.70
2023-03-26T04:38:18.293Z,7.70
2023-03-26T04:40:47.629Z,7.70
2023-03-26T04:43:16.457Z,7.70
2023-03-26T04:45:43.677Z,7.70
2023-03-26T04:48:14.292Z,7.70
2023-03-26T04:50:42.596Z,7.60
2023-03-26T04:53:13.454Z,7.70
2023-03-26T04:55:43.086Z,7.70
2023-03-26T04:58:10.253Z,7.70
2023-03-26T05:00:36.804Z,7.70
2023-03-26T05:03:03.552Z,7.70
2023-03-26T05:05:30.242Z,7.70
2023-03-26T05:07:56.922Z,7.70
2023-03-26T05:10:23.829Z,8.00
2023-03-26T05:12:50.502Z,7.80
2023-03-26T05:15:17.181Z,7.70
2023-03-26T05:17:43.815Z,7.70
2023-03-26T05:20:20.632Z,7.70
2023-03-26T05:22:48.914Z,7.70
2023-03-26T05:25:16.707Z,7.70
2023-03-26T05:27:43.479Z,7.60
2023-03-26T05:30:13.176Z,7.70
2023-03-26T05:32:39.823Z,7.70
2023-03-26T05:35:07.494Z,7.70
2023-03-26T05:37:34.126Z,7.80
2023-03-26T05:40:01.270Z,7.80
2023-03-26T05:42:27.828Z,7.80
2023-03-26T05:44:54.408Z,7.90
2023-03-26T05:47:20.986Z,7.90
2023-03-26T05:49:47.672Z,7.90
2023-03-26T05:52:16.134Z,8.00
2023-03-26T05:54:42.871Z,8.10
2023-03-26T05:57:09.475Z,8.10
2023-03-26T05:59:36.665Z,8.10
2023-03-26T06:02:03.307Z,8.20
2023-03-26T06:04:29.985Z,8.30
2023-03-26T06:06:56.989Z,8.30
2023-03-26T06:09:23.881Z,8.40
2023-03-26T06:11:50.877Z,8.40
2023-03-26T06:14:17.546Z,8.60
2023-03-26T06:16:44.122Z,8.60
2023-03-26T06:19:10.781Z,8.60
2023-03-26T06:21:37.346Z,8.60
2023-03-26T06:24:04.028Z,8.70
2023-03-26T06:26:30.829Z,8.60
2023-03-26T06:28:57.434Z,8.60
2023-03-26T06:31:24.045Z,8.70
2023-03-26T06:33:51.258Z,8.80
2023-03-26T06:36:17.849Z,8.90
2023-03-26T06:38:44.475Z,9.00
2023-03-26T06:41:11.068Z,9.10
2023-03-26T06:43:39.058Z,9.20
2023-03-26T06:46:06.017Z,9.20
2023-03-26T06:48:32.663Z,9.20
2023-03-26T06:50:59.206Z,9.20
2023-03-26T06:53:26.026Z,9.30
2023-03-26T06:55:53.570Z,9.30
2023-03-26T06:58:20.868Z,9.30
2023-03-26T07:00:47.446Z,9.30
2023-03-26T07:03:14.049Z,9.30
2023-03-26T07:05:41.096Z,9.20
2023-03-26T07:08:07.635Z,9.30
2023-03-26T07:10:34.207Z,9.20
2023-03-26T07:13:01.033Z,9.20
2023-03-26T07:15:28.433Z,9.20
2023-03-26T07:17:55.543Z,9.20
2023-03-26T07:20:22.641Z,9.30
2023-03-26T07:22:49.653Z,9.20
2023-03-26T07:25:16.994Z,9.30
2023-03-26T07:28:03.832Z,9.30
2023-03-26T07:30:30.614Z,10.40
2023-03-26T07:33:01.000Z,11.40
2023-03-26T07:35:32.120Z,11.10
2023-03-26T07:37:59.300Z,10.70
2023-03-26T07:40:37.803Z,10.30
2023-03-26T07:43:13.299Z,10.20
2023-03-26T07:45:41.724Z,10.20
2023-03-26T07:48:21.917Z,10.10
2023-03-26T07:50:48.676Z,10.00
2023-03-26T07:53:15.578Z,10.00
2023-03-26T07:55:57.544Z,9.90
2023-03-26T07:58:37.727Z,9.80
2023-03-26T08:01:08.022Z,9.80
2023-03-26T08:03:53.550Z,9.70
2023-03-26T08:06:28.194Z,9.70
2023-03-26T08:09:11.084Z,9.70
2023-03-26T08:11:54.440Z,9.70
2023-03-26T08:14:40.858Z,9.70
2023-03-26T08:17:20.917Z,9.70
2023-03-26T08:19:51.086Z,9.70
2023-03-26T08:22:29.000Z,9.70
2023-03-26T08:25:01.712Z,9.70
2023-03-26T08:27:37.762Z,9.70
2023-03-26T08:30:10.778Z,9.70
2023-03-26T08:32:37.547Z,9.60
2023-03-26T08:35:04.793Z,9.60
2023-03-26T08:37:31.676Z,9.60
2023-03-26T08:39:58.201Z,9.60
2023-03-26T08:42:44.234Z,9.60
2023-03-26T08:45:29.296Z,9.60
2023-03-26T08:48:14.300Z,9.60
2023-03-26T08:50:59.859Z,9.50
2023-03-26T08:53:45.309Z,9.50
2023-03-26T08:56:32.534Z,9.40
2023-03-26T08:59:14.164Z,9.40
2023-03-26T09:01:59.408Z,9.30
2023-03-26T09:04:28.758Z,9.20
2023-03-26T09:07:24.564Z,9.30
2023-03-26T09:09:53.919Z,9.30
2023-03-26T09:12:29.707Z,9.20
2023-03-26T09:15:15.291Z,9.30
2023-03-26T09:18:00.821Z,9.30
2023-03-26T09:20:48.129Z,9.30
2023-03-26T09:23:26.118Z,9.30
2023-03-26T09:26:17.044Z,9.30
2023-03-26T09:29:04.274Z,9.40
2023-03-26T09:31:46.023Z,9.40
2023-03-26T09:34:22.265Z,9.40
2023-03-26T09:36:57.232Z,9.40
2023-03-26T09:39:35.004Z,9.40
2023-03-26T09:42:07.855Z,9.20
2023-03-26T09:44:53.432Z,9.20
2023-03-26T09:47:29.041Z,9.20
2023-03-26T09:50:18.983Z,9.20
2023-03-26T09:53:00.691Z,9.20
2023-03-26T09:55:38.521Z,9.30
2023-03-26T09:58:20.335Z,9.20
2023-03-26T10:01:00.798Z,9.20
2023-03-26T10:03:38.132Z,9.20
2023-03-26T10:06:13.639Z,9.20
2023-03-26T10:08:41.235Z,9.20
2023-03-26T10:11:13.834Z,9.30
2023-03-26T10:13:49.700Z,9.40
2023-03-26T10:16:16.777Z,9.40
2023-03-26T10:19:08.810Z,9.50
2023-03-26T10:21:44.701Z,9.50
2023-03-26T10:24:22.379Z,9.60
2023-03-26T10:27:10.796Z,9.60
2023-03-26T10:30:03.719Z,9.30
2023-03-26T10:32:46.735Z,10.00
2023-03-26T10:35:32.289Z,10.10
2023-03-26T10:38:10.548Z,10.00
2023-03-26T10:40:56.104Z,9.90
2023-03-26T10:43:36.119Z,9.80
2023-03-26T10:46:21.451Z,9.80
2023-03-26T10:49:05.714Z,9.70
2023-03-26T10:51:41.787Z,9.80
2023-03-26T10:54:14.926Z,9.70
2023-03-26T10:56:46.031Z,9.80
2023-03-26T10:59:13.728Z,9.50
2023-03-26T11:01:43.492Z,9.50
2023-03-26T11:04:19.289Z,9.60
2023-03-26T11:06:53.968Z,9.70
2023-03-26T11:09:33.720Z,9.80
2023-03-26T11:12:26.321Z,9.80
2023-03-26T11:14:57.844Z,9.80
2023-03-26T11:17:39.694Z,9.70
2023-03-26T11:20:08.303Z,9.60
2023-03-26T11:22:53.739Z,9.40
2023-03-26T11:25:39.231Z,9.50
2023-03-26T11:28:07.085Z,9.50
2023-03-26T11:30:39.907Z,9.50
2023-03-26T11:33:09.909Z,9.70
2023-03-26T11:35:45.777Z,9.70
2023-03-26T11:38:12.311Z,9.80
2023-03-26T11:40:41.554Z,9.80
2023-03-26T11:43:10.498Z,9.80
2023-03-26T11:45:43.903Z,10.00
2023-03-26T11:48:14.797Z,10.40
2023-03-26T11:50:43.983Z,10.40
2023-03-26T11:53:12.397Z,10.40
2023-03-26T11:55:44.619Z,10.50
2023-03-26T11:58:22.616Z,10.40
2023-03-26T12:00:50.240Z,10.50
2023-03-26T12:03:16.790Z,10.80
2023-03-26T12:05:51.706Z,11.00
2023-03-26T12:08:21.109Z,11.20
2023-03-26T12:10:51.123Z,11.40
2023-03-26T12:13:20.665Z,11.40
2023-03-26T12:15:47.301Z,11.70
2023-03-26T12:18:25.075Z,12.10
2023-03-26T12:21:08.541Z,12.30
2023-03-26T12:23:56.103Z,12.30
2023-03-26T12:26:31.780Z,12.30
2023-03-26T12:29:04.283Z,12.70
2023-03-26T12:31:41.185Z,13.00
2023-03-26T12:34:15.099Z,13.50
2023-03-26T12:36:46.965Z,14.50
2023-03-26T12:40:10.169Z,15.90
2023-03-26T12:44:46.779Z,17.40
2023-03-26T12:45:14.622Z,18.60
2023-03-26T12:47:58.146Z,20.10
2023-03-26T12:50:39.532Z,20.90
2023-03-26T12:53:15.296Z,21.70
2023-03-26T12:55:56.438Z,22.60
2023-03-26T12:58:42.073Z,23.20
2023-03-26T13:01:26.090Z,23.80
2023-03-26T13:04:04.956Z,24.20
2023-03-26T13:07:00.071Z,24.70
2023-03-26T13:09:24.121Z,25.40
2023-03-26T13:11:55.199Z,24.90
2023-03-26T13:14:24.810Z,24.30
2023-03-26T13:16:51.640Z,23.80
2023-03-26T13:19:26.026Z,24.10
2023-03-26T13:21:57.791Z,24.80
2023-03-26T13:24:24.436Z,25.60
2023-03-26T13:26:57.387Z,24.80
2023-03-26T13:29:44.323Z,24.60
2023-03-26T13:32:31.143Z,25.00
2023-03-26T13:35:04.178Z,25.70
2023-03-26T13:37:38.533Z,26.20
2023-03-26T13:40:25.460Z,26.00
2023-03-26T13:43:12.371Z,25.80
2023-03-26T13:45:54.316Z,25.00
2023-03-26T13:48:30.820Z,24.20
2023-03-26T13:51:03.793Z,23.80
2023-03-26T13:53:39.350Z,23.70
2023-03-26T13:56:06.813Z,23.40
2023-03-26T13:58:36.765Z,22.40
2023-03-26T14:01:09.505Z,21.40
2023-03-26T14:03:54.588Z,20.60
2023-03-26T14:06:35.212Z,19.90
2023-03-26T14:09:12.518Z,19.10
2023-03-26T14:11:57.810Z,18.60
2023-03-26T14:14:32.246Z,18.10
2023-03-26T14:17:02.281Z,18.00
2023-03-26T14:19:34.622Z,17.60
2023-03-26T14:22:04.404Z,17.00
2023-03-26T14:24:43.331Z,16.60
2023-03-26T14:27:37.288Z,16.20
2023-03-26T14:30:22.637Z,16.20
2023-03-26T14:33:10.384Z,16.30
2023-03-26T14:35:42.106Z,16.70
2023-03-26T14:38:23.396Z,16.80
2023-03-26T14:40:57.902Z,17.00
2023-03-26T14:43:38.491Z,16.90
2023-03-26T14:46:11.238Z,17.00
2023-03-26T14:48:38.006Z,17.10
2023-03-26T14:51:10.264Z,17.10
2023-03-26T14:53:40.067Z,17.30
2023-03-26T14:56:25.845Z,17.20
2023-03-26T14:59:04.519Z,17.10
2023-03-26T15:01:59.830Z,17.10
2023-03-26T15:04:45.369Z,17.10
2023-03-26T15:07:27.037Z,17.20
2023-03-26T15:10:09.856Z,17.30
2023-03-26T15:12:55.292Z,17.50
2023-03-26T15:15:21.832Z,17.60
2023-03-26T15:18:09.134Z,17.70
2023-03-26T15:20:35.815Z,18.00
2023-03-26T15:23:20.985Z,18.40
2023-03-26T15:26:10.067Z,18.60
2023-03-26T15:28:49.837Z,18.40
2023-03-26T15:31:31.773Z,18.40
2023-03-26T15:34:12.069Z,18.50
2023-03-26T15:36:54.559Z,18.50
2023-03-26T15:39:58.646Z,18.50
2023-03-26T15:42:45.651Z,18.40
2023-03-26T15:45:31.133Z,18.20
2023-03-26T15:48:01.266Z,18.00
2023-03-26T15:50:46.577Z,17.70
2023-03-26T15:53:33.537Z,17.60
2023-03-26T15:56:07.237Z,17.40
2023-03-26T15:58:44.136Z,17.30
2023-03-26T16:01:20.504Z,17.20
2023-03-26T16:03:56.203Z,17.00
2023-03-26T16:06:31.163Z,16.90
2023-03-26T16:09:15.019Z,16.70
2023-03-26T16:11:55.855Z,16.60
2023-03-26T16:14:34.435Z,16.30
2023-03-26T16:17:02.043Z,16.30
2023-03-26T16:19:36.345Z,15.90
2023-03-26T16:22:07.584Z,15.80
2023-03-26T16:24:35.210Z,15.60
2023-03-26T16:27:03.106Z,15.70
2023-03-26T16:29:30.523Z,15.90
2023-03-26T16:32:16.338Z,15.80
2023-03-26T16:34:55.123Z,16.00
2023-03-26T16:37:40.733Z,15.90
2023-03-26T16:40:20.755Z,15.80
2023-03-26T16:42:58.162Z,15.70
2023-03-26T16:45:34.452Z,15.80
2023-03-26T16:48:10.166Z,15.80
2023-03-26T16:50:39.718Z,15.60
2023-03-26T16:53:06.452Z,15.40
2023-03-26T16:55:43.160Z,15.20
2023-03-26T16:58:28.576Z,15.40
2023-03-26T17:01:01.043Z,15.30
2023-03-26T17:03:35.452Z,15.30
2023-03-26T17:06:23.260Z,15.40
2023-03-26T17:08:53.265Z,15.30
2023-03-26T17:11:39.962Z,15.40
2023-03-26T17:14:12.592Z,15.60
2023-03-26T17:16:43.374Z,15.70
2023-03-26T17:19:10.051Z,15.80
2023-03-26T17:21:51.675Z,15.90
2023-03-26T17:24:26.538Z,16.00
2023-03-26T17:27:01.336Z,16.00
2023-03-26T17:29:54.463Z,15.60
2023-03-26T17:32:21.498Z,15.10
2023-03-26T17:34:51.011Z,15.20
2023-03-26T17:37:23.884Z,15.50
2023-03-26T17:39:50.424Z,15.70
2023-03-26T17:42:33.294Z,15.90
2023-03-26T17:45:01.620Z,15.90
2023-03-26T17:47:39.412Z,16.00
2023-03-26T17:50:17.132Z,16.00
2023-03-26T17:52:54.317Z,16.00
2023-03-26T17:55:22.925Z,15.90
2023-03-26T17:58:00.105Z,15.80
2023-03-26T18:00:29.715Z,15.40
2023-03-26T18:02:57.801Z,15.30
2023-03-26T18:05:26.481Z,15.00
2023-03-26T18:08:02.724Z,14.70
2023-03-26T18:10:38.678Z,14.60
2023-03-26T18:13:11.179Z,14.30
2023-03-26T18:15:44.855Z,14.30
2023-03-26T18:18:16.449Z,14.20
2023-03-26T18:20:46.888Z,14.20
2023-03-26T18:23:28.725Z,14.30
2023-03-26T18:26:09.789Z,14.30
2023-03-26T18:28:41.217Z,14.10
2023-03-26T18:31:09.639Z,14.20
2023-03-26T18:33:43.771Z,14.10
2023-03-26T18:36:11.142Z,13.90
2023-03-26T18:38:39.068Z,13.30
2023-03-26T18:41:16.931Z,12.90
2023-03-26T18:43:44.016Z,12.40
2023-03-26T18:46:12.214Z,12.10
2023-03-26T18:48:39.155Z,11.90
2023-03-26T18:51:06.992Z,11.70
2023-03-26T18:54:00.114Z,11.50
2023-03-26T18:56:28.324Z,11.40
2023-03-26T18:58:57.621Z,11.20
2023-03-26T19:01:26.372Z,11.10
2023-03-26T19:03:53.685Z,11.00
2023-03-26T19:06:20.958Z,10.90
2023-03-26T19:08:47.878Z,10.80
2023-03-26T19:11:16.046Z,10.80
2023-03-26T19:13:42.934Z,10.70
2023-03-26T19:16:17.997Z,10.50
2023-03-26T19:18:44.750Z,10.50
2023-03-26T19:21:11.339Z,10.40
2023-03-26T19:23:39.268Z,10.40
2023-03-26T19:26:06.946Z,10.30
2023-03-26T19:28:35.266Z,10.30
2023-03-26T19:31:09.768Z,10.20
2023-03-26T19:33:37.506Z,10.10
2023-03-26T19:36:05.989Z,10.00
2023-03-26T19:38:42.618Z,9.90
2023-03-26T19:41:18.406Z,9.90
2023-03-26T19:43:48.053Z,9.80
2023-03-26T19:46:14.643Z,9.70
2023-03-26T19:48:45.483Z,9.70
2023-03-26T19:51:19.735Z,9.60
2023-03-26T19:53:49.528Z,9.60
2023-03-26T19:56:18.576Z,9.50
2023-03-26T19:58:45.790Z,9.50
2023-03-26T20:01:23.670Z,9.40
2023-03-26T20:03:52.641Z,9.40
2023-03-26T20:09:06.964Z,9.30
2023-03-26T20:11:37.834Z,9.30
2023-03-26T20:14:25.894Z,9.20
2023-03-26T20:16:52.946Z,9.20
2023-03-26T20:19:20.488Z,9.30
2023-03-26T20:21:47.044Z,9.20
2023-03-26T20:24:15.605Z,9.20
2023-03-26T20:26:42.799Z,9.20
2023-03-26T20:29:10.082Z,9.20
2023-03-26T20:31:37.492Z,9.30
2023-03-26T20:34:04.114Z,9.20
2023-03-26T20:36:33.705Z,8.80
2023-03-26T20:39:07.862Z,9.20
2023-03-26T20:41:34.968Z,9.10
2023-03-26T20:44:03.659Z,9.10
2023-03-26T20:46:31.859Z,9.10
2023-03-26T20:48:59.701Z,9.10
2023-03-26T20:51:28.295Z,9.10
2023-03-26T20:53:55.493Z,9.00
2023-03-26T20:56:22.059Z,9.00
2023-03-26T20:58:54.746Z,9.10
2023-03-26T21:01:27.868Z,9.00
2023-03-26T21:03:54.650Z,9.00
2023-03-26T21:06:21.219Z,9.00
2023-03-26T21:08:47.871Z,9.00
2023-03-26T21:11:26.828Z,9.00
2023-03-26T21:14:04.192Z,9.00
2023-03-26T21:16:31.362Z,8.90
2023-03-26T21:18:58.962Z,8.90
2023-03-26T21:21:39.690Z,9.00
2023-03-26T21:24:11.515Z,9.00
2023-03-26T21:26:44.086Z,9.00
2023-03-26T21:29:11.868Z,9.00
2023-03-26T21:31:38.673Z,9.00
2023-03-26T21:34:05.691Z,9.00
2023-03-26T21:36:32.491Z,8.90
2023-03-26T21:38:59.724Z,8.90
2023-03-26T21:41:41.574Z,8.90
2023-03-26T21:44:08.464Z,9.00
2023-03-26T21:46:35.394Z,8.90
2023-03-26T21:49:02.145Z,9.00
2023-03-26T21:51:29.270Z,9.00
2023-03-26T21:53:55.932Z,9.00
2023-03-26T21:56:45.400Z,8.90
2023-03-26T21:59:21.565Z,8.90
2023-03-26T22:02:03.490Z,8.90
2023-03-26T22:04:44.940Z,8.90
2023-03-26T22:07:14.401Z,8.80
2023-03-26T22:09:41.209Z,8.80
2023-03-26T22:12:08.331Z,8.80
2023-03-26T22:14:35.301Z,8.80
2023-03-26T22:17:01.869Z,8.80
2023-03-26T22:19:30.404Z,8.80
2023-03-26T22:21:58.173Z,8.80
2023-03-26T22:24:24.749Z,8.80
2023-03-26T22:26:51.520Z,8.80
2023-03-26T22:29:18.056Z,8.80
2023-03-26T22:31:45.039Z,8.80
2023-03-26T22:34:12.080Z,8.80
2023-03-26T22:36:40.314Z,8.80
2023-03-26T22:39:07.179Z,8.80
2023-03-26T22:41:33.723Z,8.80
2023-03-26T22:44:09.281Z,8.80
2023-03-26T22:46:40.310Z,8.80
2023-03-26T22:49:07.354Z,8.80
2023-03-26T22:51:33.983Z,8.80
2023-03-26T22:54:00.569Z,8.80
2023-03-26T22:56:27.361Z,8.80
2023-03-26T22:58:56.309Z,8.80
2023-03-26T23:01:23.954Z,8.80
2023-03-26T23:03:50.909Z,8.80
2023-03-26T23:06:17.543Z,8.80
2023-03-26T23:08:44.115Z,8.70
2023-03-26T23:11:12.644Z,8.70
2023-03-26T23:13:39.818Z,8.70
2023-03-26T23:16:06.897Z,8.70
2023-03-26T23:18:33.698Z,8.70
2023-03-26T23:21:00.464Z,8.70
2023-03-26T23:23:28.802Z,8.70
2023-03-26T23:25:55.904Z,8.60
2023-03-26T23:28:23.941Z,8.60
2023-03-26T23:30:52.207Z,8.60
2023-03-26T23:33:20.351Z,8.60
2023-03-26T23:35:47.951Z,8.50
2023-03-26T23:38:14.668Z,8.50
2023-03-26T23:40:43.912Z,8.50
2023-03-26T23:43:10.773Z,8.50
2023-03-26T23:45:37.462Z,8.40
2023-03-26T23:48:04.633Z,8.50
2023-03-26T23:50:31.510Z,8.40
2023-03-26T23:52:58.749Z,8.40
2023-03-26T23:55:27.355Z,8.40
2023-03-26T23:57:54.498Z,8.40
